createdAt,value
2023-05-06T00:00:58.810Z,11.06
2023-05-06T00:04:01.044Z,11.09
2023-05-06T00:07:02.962Z,11.11
2023-05-06T00:10:05.280Z,11.11
2023-05-06T00:13:08.227Z,11.11
2023-05-06T00:16:10.094Z,11.12
2023-05-06T00:19:12.403Z,11.12
2023-05-06T00:22:14.172Z,11.13
2023-05-06T00:25:16.016Z,11.12
2023-05-06T00:28:17.861Z,11.08
2023-05-06T00:31:19.633Z,11.04
2023-05-06T00:34:21.338Z,10.98
2023-05-06T00:37:23.302Z,10.81
2023-05-06T00:40:25.075Z,10.67
2023-05-06T00:43:26.853Z,10.74
2023-05-06T00:46:28.670Z,10.73
2023-05-06T00:49:31.115Z,10.48
2023-05-06T00:52:32.940Z,10.42
2023-05-06T00:55:35.557Z,10.35
2023-05-06T00:58:37.592Z,10.37
2023-05-06T01:01:39.424Z,10.38
2023-05-06T01:04:41.554Z,10.43
2023-05-06T01:08:01.906Z,10.41
2023-05-06T01:11:24.883Z,10.43
2023-05-06T01:14:38.657Z,10.46
2023-05-06T01:17:46.599Z,10.45
2023-05-06T01:20:50.989Z,10.46
2023-05-06T01:23:58.292Z,10.48
2023-05-06T01:27:00.338Z,10.48
2023-05-06T01:30:02.651Z,10.46
2023-05-06T01:33:09.690Z,10.49
2023-05-06T01:36:20.820Z,10.50
2023-05-06T01:39:26.907Z,10.52
2023-05-06T01:42:29.594Z,10.51
2023-05-06T01:45:32.004Z,10.52
2023-05-06T01:48:36.574Z,10.53
2023-05-06T01:51:38.724Z,10.49
2023-05-06T01:54:40.827Z,10.53
2023-05-06T01:57:42.668Z,10.53
2023-05-06T02:00:44.567Z,10.53
2023-05-06T02:03:46.625Z,10.49
2023-05-06T02:06:48.540Z,10.29
2023-05-06T02:09:50.726Z,10.19
2023-05-06T02:12:52.686Z,9.90
2023-05-06T02:15:54.828Z,9.70
2023-05-06T02:18:57.818Z,9.45
2023-05-06T02:21:59.701Z,9.50
2023-05-06T02:25:01.613Z,9.64
2023-05-06T02:28:03.641Z,9.77
2023-05-06T02:31:05.918Z,9.83
2023-05-06T02:34:08.880Z,9.85
2023-05-06T02:37:10.816Z,9.87
2023-05-06T02:40:12.728Z,9.90
2023-05-06T02:43:14.662Z,9.93
2023-05-06T02:46:16.684Z,9.93
2023-05-06T02:49:18.611Z,9.87
2023-05-06T02:52:20.969Z,9.69
2023-05-06T02:55:22.690Z,9.75
2023-05-06T02:58:24.610Z,9.77
2023-05-06T03:01:26.542Z,9.85
2023-05-06T03:04:28.607Z,9.88
2023-05-06T03:07:31.095Z,9.88
2023-05-06T03:10:32.957Z,9.90
2023-05-06T03:13:34.873Z,9.85
2023-05-06T03:16:36.732Z,9.83
2023-05-06T03:19:38.540Z,9.69
2023-05-06T03:22:42.256Z,9.72
2023-05-06T03:25:44.304Z,9.68
2023-05-06T03:28:46.164Z,9.67
2023-05-06T03:31:51.045Z,9.65
2023-05-06T03:34:52.940Z,9.64
2023-05-06T03:37:55.083Z,9.61
2023-05-06T03:40:56.861Z,9.55
2023-05-06T03:43:58.853Z,9.56
2023-05-06T03:47:00.633Z,9.60
2023-05-06T03:50:02.900Z,9.62
2023-05-06T03:53:04.769Z,9.64
2023-05-06T03:56:07.070Z,9.70
2023-05-06T03:59:08.990Z,9.77
2023-05-06T04:02:10.754Z,9.83
2023-05-06T04:05:12.853Z,9.78
2023-05-06T04:08:14.852Z,9.77
2023-05-06T04:11:16.598Z,9.88
2023-05-06T04:14:18.364Z,10.02
2023-05-06T04:17:20.461Z,9.98
2023-05-06T04:20:22.217Z,9.92
2023-05-06T04:23:24.023Z,10.05
2023-05-06T04:26:25.806Z,10.16
2023-05-06T04:29:27.740Z,10.22
2023-05-06T04:32:29.686Z,10.29
2023-05-06T04:35:31.908Z,10.51
2023-05-06T04:38:33.946Z,10.69
2023-05-06T04:41:35.706Z,10.83
2023-05-06T04:44:37.465Z,10.91
2023-05-06T04:47:39.290Z,11.11
2023-05-06T04:50:41.197Z,11.21
2023-05-06T04:53:43.189Z,11.23
2023-05-06T04:56:44.957Z,11.35
2023-05-06T04:59:47.966Z,11.42
2023-05-06T05:02:49.882Z,11.45
2023-05-06T05:05:52.036Z,11.55
2023-05-06T05:08:55.327Z,11.66
2023-05-06T05:11:57.474Z,11.72
2023-05-06T05:14:59.215Z,11.70
2023-05-06T05:18:01.060Z,11.72
2023-05-06T05:21:03.881Z,11.82
2023-05-06T05:24:06.217Z,11.98
2023-05-06T05:27:07.946Z,12.13
2023-05-06T05:30:12.687Z,12.29
2023-05-06T05:33:15.277Z,12.49
2023-05-06T05:36:17.380Z,12.74
2023-05-06T05:39:19.197Z,12.97
2023-05-06T05:42:21.056Z,13.32
2023-05-06T05:45:22.802Z,13.75
2023-05-06T05:48:24.873Z,14.09
2023-05-06T05:51:27.004Z,14.50
2023-05-06T05:54:28.946Z,14.90
2023-05-06T05:57:30.890Z,15.39
2023-05-06T06:00:33.934Z,15.82
2023-05-06T06:03:36.232Z,15.97
2023-05-06T06:06:38.332Z,16.58
2023-05-06T06:09:40.179Z,16.97
2023-05-06T06:12:44.144Z,17.00
2023-05-06T06:15:46.506Z,17.44
2023-05-06T06:18:48.293Z,17.44
2023-05-06T06:21:50.389Z,17.98
2023-05-06T06:24:53.871Z,18.05
2023-05-06T06:27:56.687Z,17.95
2023-05-06T06:30:58.562Z,18.09
2023-05-06T06:34:00.973Z,18.29
2023-05-06T06:37:02.817Z,18.35
2023-05-06T06:40:05.185Z,18.65
2023-05-06T06:43:07.192Z,18.99
2023-05-06T06:46:08.946Z,18.86
2023-05-06T06:49:10.866Z,18.46
2023-05-06T06:52:12.981Z,18.12
2023-05-06T06:55:14.925Z,18.42
2023-05-06T06:58:16.739Z,18.54
2023-05-06T07:01:18.914Z,17.96
2023-05-06T07:04:20.987Z,18.17
2023-05-06T07:07:22.825Z,18.58
2023-05-06T07:10:24.678Z,18.18
2023-05-06T07:13:26.780Z,18.71
2023-05-06T07:16:28.895Z,18.75
2023-05-06T07:19:31.666Z,19.05
2023-05-06T07:22:33.486Z,19.43
2023-05-06T07:25:35.598Z,20.04
2023-05-06T07:28:37.434Z,19.23
2023-05-06T07:31:39.409Z,19.59
2023-05-06T07:34:41.208Z,20.36
2023-05-06T07:37:43.004Z,20.18
2023-05-06T07:40:44.917Z,20.57
2023-05-06T07:43:47.028Z,20.96
2023-05-06T07:46:49.636Z,21.37
2023-05-06T07:49:51.755Z,21.66
2023-05-06T07:52:53.623Z,21.95
2023-05-06T07:56:01.743Z,20.47
2023-05-06T07:59:03.711Z,20.31
2023-05-06T08:02:06.141Z,20.61
2023-05-06T08:05:08.928Z,20.99
2023-05-06T08:08:11.049Z,21.63
2023-05-06T08:11:13.052Z,21.96
2023-05-06T08:14:17.325Z,21.00
2023-05-06T08:17:19.412Z,21.10
2023-05-06T08:20:21.823Z,21.59
2023-05-06T08:23:23.738Z,21.50
2023-05-06T08:26:25.616Z,22.08
2023-05-06T08:29:27.643Z,21.51
2023-05-06T08:32:29.406Z,22.37
2023-05-06T08:35:31.269Z,22.49
2023-05-06T08:38:40.520Z,21.87
2023-05-06T08:41:49.726Z,22.64
2023-05-06T08:44:53.433Z,23.02
2023-05-06T08:47:55.761Z,22.73
2023-05-06T08:50:59.334Z,23.15
2023-05-06T08:54:03.622Z,22.92
2023-05-06T08:57:09.112Z,23.11
2023-05-06T09:00:12.981Z,22.68
2023-05-06T09:03:15.654Z,21.99
2023-05-06T09:06:18.741Z,22.97
2023-05-06T09:09:25.221Z,22.89
2023-05-06T09:12:27.636Z,23.54
2023-05-06T09:15:42.595Z,23.44
2023-05-06T09:18:45.676Z,24.03
2023-05-06T09:21:51.656Z,24.79
2023-05-06T09:24:58.537Z,24.79
2023-05-06T09:28:08.478Z,24.99
2023-05-06T09:31:19.778Z,25.40
2023-05-06T09:34:25.596Z,25.63
2023-05-06T09:37:32.169Z,25.01
2023-05-06T09:40:38.572Z,25.86
2023-05-06T09:43:45.340Z,26.17
2023-05-06T09:46:47.616Z,26.32
2023-05-06T09:49:50.233Z,26.48
2023-05-06T09:52:55.182Z,25.74
2023-05-06T09:55:58.826Z,25.38
2023-05-06T09:59:04.404Z,25.73
2023-05-06T10:02:06.998Z,25.76
2023-05-06T10:05:10.892Z,25.93
2023-05-06T10:08:18.404Z,26.70
2023-05-06T10:11:21.829Z,27.22
2023-05-06T10:14:25.985Z,27.34
2023-05-06T10:17:29.532Z,26.73
2023-05-06T10:20:34.871Z,25.62
2023-05-06T10:23:45.781Z,25.87
2023-05-06T10:26:49.336Z,25.50
2023-05-06T10:29:55.040Z,25.07
2023-05-06T10:33:05.003Z,25.03
2023-05-06T10:36:23.936Z,24.43
2023-05-06T10:39:28.553Z,24.26
2023-05-06T10:42:35.779Z,24.36
2023-05-06T10:46:02.415Z,24.63
2023-05-06T10:49:04.953Z,24.62
2023-05-06T10:52:14.969Z,24.95
2023-05-06T10:55:36.525Z,24.91
2023-05-06T10:58:38.903Z,25.01
2023-05-06T11:01:43.454Z,24.85
2023-05-06T11:04:52.099Z,24.64
2023-05-06T11:08:09.229Z,24.73
2023-05-06T11:11:49.594Z,24.60
2023-05-06T11:14:52.084Z,24.81
2023-05-06T11:17:55.923Z,24.88
2023-05-06T11:21:01.905Z,24.83
2023-05-06T11:24:04.535Z,24.68
2023-05-06T11:27:07.749Z,24.84
2023-05-06T11:30:15.101Z,24.59
2023-05-06T11:33:19.551Z,24.32
2023-05-06T11:36:22.049Z,23.97
2023-05-06T11:39:26.007Z,23.64
2023-05-06T11:42:29.483Z,23.66
2023-05-06T11:45:44.434Z,23.22
2023-05-06T11:48:46.818Z,23.52
2023-05-06T11:51:49.741Z,23.55
2023-05-06T11:54:53.896Z,23.73
2023-05-06T11:57:55.682Z,23.72
2023-05-06T12:00:59.272Z,23.63
2023-05-06T12:04:02.230Z,23.63
2023-05-06T12:07:05.995Z,23.62
2023-05-06T12:10:08.640Z,23.52
2023-05-06T12:13:11.028Z,23.45
2023-05-06T12:16:13.144Z,23.37
2023-05-06T12:19:18.692Z,23.24
2023-05-06T12:22:22.440Z,23.22
2023-05-06T12:25:24.954Z,23.06
2023-05-06T12:28:27.398Z,22.92
2023-05-06T12:31:29.237Z,22.89
2023-05-06T12:34:41.070Z,22.61
2023-05-06T12:37:47.375Z,22.65
2023-05-06T12:40:54.005Z,22.49
2023-05-06T12:43:55.836Z,22.41
2023-05-06T12:46:58.263Z,22.35
2023-05-06T12:50:00.982Z,22.36
2023-05-06T12:53:04.311Z,22.19
2023-05-06T12:56:06.281Z,22.03
2023-05-06T12:59:08.806Z,21.65
2023-05-06T13:02:11.135Z,21.57
2023-05-06T13:05:14.320Z,21.54
2023-05-06T13:08:16.202Z,21.49
2023-05-06T13:11:18.130Z,21.39
2023-05-06T13:14:20.080Z,21.24
2023-05-06T13:17:22.029Z,20.98
2023-05-06T13:20:23.829Z,20.63
2023-05-06T13:23:25.610Z,20.46
2023-05-06T13:26:27.546Z,20.38
2023-05-06T13:29:29.844Z,20.26
2023-05-06T13:32:32.578Z,20.16
2023-05-06T13:35:34.912Z,20.01
2023-05-06T13:38:40.915Z,19.74
2023-05-06T13:41:43.416Z,19.71
2023-05-06T13:44:46.199Z,19.55
2023-05-06T13:47:48.309Z,19.20
2023-05-06T13:50:50.776Z,19.08
2023-05-06T13:53:53.383Z,19.00
2023-05-06T13:56:56.438Z,18.85
2023-05-06T13:59:58.480Z,18.66
2023-05-06T14:03:00.742Z,18.09
2023-05-06T14:06:03.398Z,18.02
2023-05-06T14:09:05.510Z,18.13
2023-05-06T14:12:07.497Z,18.06
2023-05-06T14:15:10.596Z,18.08
2023-05-06T14:18:12.532Z,18.10
2023-05-06T14:21:15.244Z,18.18
2023-05-06T14:24:17.200Z,17.93
2023-05-06T14:27:19.015Z,17.79
2023-05-06T14:30:21.554Z,17.24
2023-05-06T14:33:23.581Z,17.41
2023-05-06T14:36:25.470Z,16.97
2023-05-06T14:39:27.448Z,16.72
2023-05-06T14:42:29.396Z,16.45
2023-05-06T14:45:31.389Z,16.51
2023-05-06T14:48:33.395Z,16.56
2023-05-06T14:51:35.230Z,16.77
2023-05-06T14:54:42.223Z,16.99
2023-05-06T14:57:44.291Z,17.05
2023-05-06T15:00:46.210Z,16.78
2023-05-06T15:03:48.123Z,17.13
2023-05-06T15:06:49.859Z,17.45
2023-05-06T15:09:52.421Z,17.74
2023-05-06T15:12:54.354Z,17.87
2023-05-06T15:15:56.073Z,18.07
2023-05-06T15:18:57.815Z,18.35
2023-05-06T15:22:00.054Z,18.43
2023-05-06T15:25:03.217Z,18.65
2023-05-06T15:28:05.606Z,18.70
2023-05-06T15:31:08.406Z,18.52
2023-05-06T15:34:11.316Z,18.36
2023-05-06T15:37:15.829Z,18.17
2023-05-06T15:40:17.725Z,18.21
2023-05-06T15:43:23.655Z,18.09
2023-05-06T15:46:27.357Z,18.04
2023-05-06T15:49:47.458Z,17.99
2023-05-06T15:52:52.603Z,18.13
2023-05-06T15:56:01.295Z,18.24
2023-05-06T15:59:09.482Z,18.47
2023-05-06T16:05:16.077Z,18.56
2023-05-06T16:08:17.868Z,18.52
2023-05-06T16:11:19.707Z,18.43
2023-05-06T16:14:21.552Z,18.53
2023-05-06T16:17:23.330Z,18.46
2023-05-06T16:20:25.130Z,18.50
2023-05-06T16:23:26.895Z,18.54
2023-05-06T16:26:28.603Z,18.59
2023-05-06T16:29:30.369Z,18.64
2023-05-06T16:32:32.749Z,18.60
2023-05-06T16:35:34.500Z,18.61
2023-05-06T16:38:36.655Z,18.57
2023-05-06T16:41:38.568Z,18.44
2023-05-06T16:44:40.629Z,18.32
2023-05-06T16:47:44.094Z,18.33
2023-05-06T16:50:46.212Z,18.27
2023-05-06T16:53:48.264Z,18.31
2023-05-06T16:56:52.648Z,18.37
2023-05-06T16:59:54.804Z,18.40
2023-05-06T17:02:56.843Z,18.34
2023-05-06T17:05:58.763Z,18.25
2023-05-06T17:09:00.498Z,18.28
2023-05-06T17:12:02.424Z,18.26
2023-05-06T17:15:05.281Z,18.25
2023-05-06T17:18:07.206Z,18.27
2023-05-06T17:21:09.062Z,18.23
2023-05-06T17:24:10.836Z,18.17
2023-05-06T17:27:12.719Z,18.02
2023-05-06T17:30:15.102Z,17.91
2023-05-06T17:33:17.029Z,17.84
2023-05-06T17:36:19.415Z,17.82
2023-05-06T17:39:21.357Z,17.78
2023-05-06T17:42:23.213Z,17.63
2023-05-06T17:45:26.772Z,17.66
2023-05-06T17:48:28.519Z,17.67
2023-05-06T17:51:30.296Z,17.76
2023-05-06T17:54:36.400Z,17.76
2023-05-06T17:57:38.204Z,17.70
2023-05-06T18:00:40.249Z,17.74
2023-05-06T18:03:43.896Z,17.75
2023-05-06T18:06:46.562Z,17.74
2023-05-06T18:09:51.973Z,17.72
2023-05-06T18:12:55.526Z,17.68
2023-05-06T18:15:57.454Z,17.63
2023-05-06T18:19:02.549Z,17.66
2023-05-06T18:22:04.515Z,17.64
2023-05-06T18:25:07.227Z,17.58
2023-05-06T18:28:09.337Z,17.51
2023-05-06T18:31:11.212Z,17.55
2023-05-06T18:34:13.355Z,17.51
2023-05-06T18:37:15.118Z,17.43
2023-05-06T18:40:17.858Z,17.39
2023-05-06T18:43:19.701Z,17.34
2023-05-06T18:46:21.524Z,16.98
2023-05-06T18:49:23.694Z,17.10
2023-05-06T18:52:25.682Z,17.11
2023-05-06T18:55:27.902Z,17.06
2023-05-06T18:58:29.897Z,17.06
2023-05-06T19:01:31.840Z,17.08
2023-05-06T19:04:33.844Z,16.91
2023-05-06T19:07:35.873Z,16.96
2023-05-06T19:10:38.242Z,17.01
2023-05-06T19:13:40.801Z,17.04
2023-05-06T19:16:42.764Z,17.06
2023-05-06T19:19:46.980Z,17.07
2023-05-06T19:22:48.905Z,17.02
2023-05-06T19:25:50.826Z,17.01
2023-05-06T19:28:52.632Z,16.98
2023-05-06T19:31:54.694Z,16.93
2023-05-06T19:34:56.851Z,16.92
2023-05-06T19:37:58.877Z,16.93
2023-05-06T19:41:01.141Z,16.91
2023-05-06T19:44:03.019Z,16.77
2023-05-06T19:47:04.958Z,16.56
2023-05-06T19:50:07.454Z,16.61
2023-05-06T19:53:09.392Z,16.63
2023-05-06T19:56:12.620Z,16.55
2023-05-06T19:59:14.619Z,16.60
2023-05-06T20:02:16.895Z,16.50
2023-05-06T20:05:19.016Z,16.49
2023-05-06T20:08:20.798Z,16.48
2023-05-06T20:11:23.072Z,16.47
2023-05-06T20:14:25.075Z,16.33
2023-05-06T20:17:27.184Z,16.32
2023-05-06T20:20:34.252Z,16.34
2023-05-06T20:23:36.269Z,16.27
2023-05-06T20:26:38.071Z,16.19
2023-05-06T20:29:40.038Z,16.25
2023-05-06T20:32:41.989Z,16.28
2023-05-06T20:35:43.706Z,16.26
2023-05-06T20:38:46.273Z,16.08
2023-05-06T20:41:48.206Z,15.99
2023-05-06T20:44:53.284Z,15.86
2023-05-06T20:47:55.173Z,15.94
2023-05-06T20:50:57.895Z,15.71
2023-05-06T20:54:01.052Z,15.61
2023-05-06T20:57:03.055Z,15.71
2023-05-06T21:00:07.777Z,15.82
2023-05-06T21:03:09.679Z,15.62
2023-05-06T21:06:12.608Z,15.60
2023-05-06T21:09:14.340Z,15.69
2023-05-06T21:12:16.392Z,15.74
2023-05-06T21:15:18.299Z,15.70
2023-05-06T21:18:20.468Z,15.72
2023-05-06T21:21:25.587Z,15.64
2023-05-06T21:24:27.378Z,15.70
2023-05-06T21:27:29.090Z,15.61
2023-05-06T21:30:31.233Z,15.60
2023-05-06T21:33:33.380Z,15.65
2023-05-06T21:36:36.280Z,15.67
2023-05-06T21:39:38.354Z,15.68
2023-05-06T21:42:40.230Z,15.64
2023-05-06T21:45:42.002Z,15.62
2023-05-06T21:48:43.741Z,15.58
2023-05-06T21:51:45.515Z,15.50
2023-05-06T21:54:47.472Z,15.46
2023-05-06T21:57:49.397Z,15.45
2023-05-06T22:00:52.317Z,15.46
2023-05-06T22:03:54.284Z,15.39
2023-05-06T22:06:56.937Z,15.37
2023-05-06T22:09:58.746Z,15.26
2023-05-06T22:13:00.758Z,15.22
2023-05-06T22:16:04.140Z,15.19
2023-05-06T22:19:06.747Z,15.27
2023-05-06T22:22:09.146Z,15.27
2023-05-06T22:25:11.377Z,15.24
2023-05-06T22:28:13.637Z,15.23
2023-05-06T22:31:15.627Z,15.24
2023-05-06T22:34:17.841Z,15.24
2023-05-06T22:37:19.792Z,15.15
2023-05-06T22:40:21.638Z,15.05
2023-05-06T22:43:23.399Z,15.10
2023-05-06T22:46:25.964Z,14.90
2023-05-06T22:49:28.775Z,14.86
2023-05-06T22:52:30.643Z,14.86
2023-05-06T22:55:32.666Z,14.77
2023-05-06T22:58:34.487Z,14.76
2023-05-06T23:01:36.382Z,14.75
2023-05-06T23:04:38.978Z,14.82
2023-05-06T23:07:40.944Z,14.80
2023-05-06T23:10:43.091Z,14.67
2023-05-06T23:13:45.004Z,14.70
2023-05-06T23:16:47.036Z,14.51
2023-05-06T23:19:48.793Z,14.49
2023-05-06T23:22:50.693Z,14.34
2023-05-06T23:25:53.338Z,14.22
2023-05-06T23:28:55.157Z,14.37
2023-05-06T23:31:57.236Z,14.44
2023-05-06T23:34:59.169Z,14.37
2023-05-06T23:38:01.003Z,14.40
2023-05-06T23:41:02.754Z,14.32
2023-05-06T23:44:04.828Z,14.29
2023-05-06T23:47:06.582Z,14.25
2023-05-06T23:50:08.951Z,14.23
2023-05-06T23:53:11.551Z,14.12
2023-05-06T23:56:13.350Z,14.13
2023-05-06T23:59:15.266Z,14.11
